Time;durP1;ratioP1;P1;durP2;ratioP2;P2;SDS_P1;SDS_P2;PMS_P1;PMS_P2;Temp;Humidity;BMP_temperature;BMP_pressure;BME280_temperature;BME280_humidity;BME280_pressure;Samples;Min_cycle;Max_cycle;Signal;HPM_P1;HPM_P2
2021/11/08 00:01:10;;;;;;;12.15;4.68;;;5.30;99.90;;;;;;5056075;28;20460;-68
2021/11/08 00:03:40;;;;;;;8.90;4.43;;;5.30;99.90;;;;;;5056086;28;20119;-69
2021/11/08 00:06:06;;;;;;;9.80;4.20;;;4.70;99.90;;;;;;5055847;28;20087;-68
2021/11/08 00:08:32;;;;;;;;;;;5.20;99.90;;;;;;5063656;28;20046;-68
2021/11/08 00:10:58;;;;;;;8.48;3.88;;;4.60;99.90;;;;;;5075919;28;19904;-68
2021/11/08 00:13:25;;;;;;;;;;;4.90;99.90;;;;;;5076793;28;20107;-68
2021/11/08 00:20:54;;;;;;;12.70;4.22;;;5.10;99.90;;;;;;5055700;28;20060;-68
2021/11/08 00:23:20;;;;;;;10.25;3.95;;;4.80;99.90;;;;;;5056193;28;20017;-68
2021/11/08 00:25:46;;;;;;;10.88;4.13;;;4.80;99.90;;;;;;5055701;28;20032;-68
2021/11/08 00:28:15;;;;;;;7.00;4.20;;;4.90;99.90;;;;;;5056046;28;20076;-68
2021/11/08 00:30:42;;;;;;;10.95;4.00;;;4.90;99.90;;;;;;5059227;28;20496;-68
2021/11/08 00:33:10;;;;;;;11.07;3.65;;;4.20;99.90;;;;;;5059482;28;20473;-68
2021/11/08 00:35:37;;;;;;;6.97;4.32;;;5.00;99.90;;;;;;5058831;28;20039;-68
2021/11/08 00:38:07;;;;;;;7.18;4.35;;;4.80;99.90;;;;;;5059296;28;20106;-68
2021/11/08 00:40:34;;;;;;;6.13;4.32;;;4.00;99.90;;;;;;5059321;28;20029;-68
2021/11/08 00:43:00;;;;;;;11.68;4.82;;;4.80;99.90;;;;;;5059235;28;20067;-68
2021/11/08 00:45:26;;;;;;;9.88;5.43;;;4.20;99.90;;;;;;5058950;28;20029;-68
2021/11/08 00:47:53;;;;;;;;;;;4.80;99.90;;;;;;5059758;28;20032;-68
2021/11/08 00:50:19;;;;;;;9.15;4.85;;;6.40;99.90;;;;;;5058885;28;19931;-69
2021/11/08 00:52:45;;;;;;;17.17;4.50;;;4.70;99.90;;;;;;5059083;28;20098;-68
2021/11/08 00:55:11;;;;;;;;;;;4.80;99.90;;;;;;5059099;28;20018;-68
2021/11/08 00:57:38;;;;;;;8.75;3.85;;;4.80;99.90;;;;;;5058907;28;19948;-68
2021/11/08 01:00:10;;;;;;;9.35;5.28;;;4.70;99.90;;;;;;5058590;28;20036;-68
2021/11/08 01:02:37;;;;;;;6.45;3.42;;;4.30;99.90;;;;;;5058837;28;20032;-68
2021/11/08 01:05:05;;;;;;;7.60;4.13;;;4.30;99.90;;;;;;5058245;28;20392;-68
2021/11/08 01:07:31;;;;;;;10.32;4.40;;;4.40;99.90;;;;;;5058603;28;20110;-68
2021/11/08 01:09:58;;;;;;;;;;;3.80;99.90;;;;;;5077930;28;20031;-68
2021/11/08 01:12:25;;;;;;;6.53;3.65;;;4.50;99.90;;;;;;5078894;28;19904;-68
2021/11/08 01:14:52;;;;;;;8.85;4.38;;;4.40;99.90;;;;;;5077538;28;20048;-68
2021/11/08 01:17:18;;;;;;;7.85;4.88;;;4.50;99.90;;;;;;5073295;28;20437;-68
2021/11/08 01:19:44;;;;;;;;;;;4.80;99.90;;;;;;5058534;28;20256;-68
2021/11/08 01:22:17;;;;;;;6.60;3.72;;;4.20;99.90;;;;;;5058314;28;19905;-68
2021/11/08 01:24:56;;;;;;;11.73;4.35;;;4.10;99.90;;;;;;5058337;28;20029;-68
2021/11/08 01:27:36;;;;;;;6.32;3.92;;;4.60;99.90;;;;;;5058311;28;20032;-68
2021/11/08 01:30:19;;;;;;;11.82;4.63;;;4.70;99.90;;;;;;5058252;28;20025;-68
2021/11/08 01:32:54;;;;;;;8.65;4.03;;;4.80;99.90;;;;;;5057985;28;20128;-68
2021/11/08 01:35:29;;;;;;;11.07;4.53;;;4.50;99.90;;;;;;5057986;28;20032;-68
2021/11/08 01:38:05;;;;;;;7.65;3.92;;;4.00;99.90;;;;;;5057900;28;20290;-68
2021/11/08 01:40:32;;;;;;;12.20;4.30;;;;;;;;;;5057815;28;20488;-68
2021/11/08 01:42:58;;;;;;;10.05;4.55;;;4.50;99.90;;;;;;5058012;28;20497;-68
2021/11/08 01:45:24;;;;;;;4.72;3.70;;;3.60;99.90;;;;;;5058018;28;20027;-68
2021/11/08 01:47:51;;;;;;;10.80;4.25;;;4.30;99.90;;;;;;5058125;28;20091;-68
2021/11/08 01:50:17;;;;;;;9.27;4.40;;;4.00;99.90;;;;;;5057560;28;20051;-68
2021/11/08 01:52:43;;;;;;;;;;;3.40;99.90;;;;;;5058172;28;20029;-68
2021/11/08 01:55:10;;;;;;;10.50;4.68;;;;;;;;;;5057567;28;19956;-68
2021/11/08 01:57:37;;;;;;;12.32;4.15;;;4.80;99.90;;;;;;5057758;28;20384;-68
2021/11/08 02:00:07;;;;;;;4.72;3.42;;;3.80;99.90;;;;;;5056277;28;20021;-68
2021/11/08 02:02:34;;;;;;;11.00;4.28;;;3.50;99.90;;;;;;5057621;28;20021;-68
2021/11/08 02:05:00;;;;;;;5.47;3.67;;;3.60;99.90;;;;;;5057163;28;20050;-68
2021/11/08 02:07:27;;;;;;;;;;;;;;;;;;5057822;28;20171;-68
2021/11/08 02:09:53;;;;;;;10.15;4.38;;;;;;;;;;5076127;28;19908;-68
2021/11/08 02:12:19;;;;;;;6.80;4.03;;;3.60;99.90;;;;;;5077450;28;20569;-68
2021/11/08 02:14:44;;;;;;;;;;;3.80;99.90;;;;;;5076503;28;20060;-68
2021/11/08 02:17:10;;;;;;;7.22;4.15;;;3.70;99.90;;;;;;5073990;28;19905;-68
2021/11/08 02:19:36;;;;;;;;;;;;;;;;;;5056038;28;20032;-68
2021/11/08 02:22:05;;;;;;;5.32;3.80;;;4.20;99.90;;;;;;5057241;28;19954;-68
2021/11/08 02:24:32;;;;;;;7.88;3.80;;;3.70;99.90;;;;;;5057038;28;20063;-68
2021/11/08 02:26:58;;;;;;;6.45;3.85;;;3.70;99.90;;;;;;5057284;28;20017;-68
2021/11/08 02:29:24;;;;;;;7.68;4.10;;;3.60;99.90;;;;;;5057057;28;20029;-68
2021/11/08 02:31:50;;;;;;;;;;;4.50;99.90;;;;;;5057787;28;20025;-68
2021/11/08 02:34:17;;;;;;;4.80;4.03;;;3.70;99.90;;;;;;5056897;28;19909;-68
2021/11/08 02:36:43;;;;;;;10.45;4.95;;;3.10;99.90;;;;;;5056739;28;20025;-68
2021/11/08 02:39:14;;;;;;;7.45;3.42;;;;;;;;;;5056859;28;20405;-68
2021/11/08 02:41:41;;;;;;;8.68;4.05;;;4.60;99.90;;;;;;5057047;28;20025;-68
2021/11/08 02:44:07;;;;;;;6.95;3.70;;;4.20;99.90;;;;;;5056654;28;20021;-68
2021/11/08 02:46:38;;;;;;;9.45;4.30;;;4.70;99.90;;;;;;5056789;28;20068;-68
2021/11/08 02:49:06;;;;;;;5.40;3.60;;;3.70;99.90;;;;;;5055508;28;20116;-68
2021/11/08 02:51:32;;;;;;;4.13;3.38;;;3.80;99.90;;;;;;5056084;28;20063;-68
2021/11/08 02:54:04;;;;;;;13.57;4.10;;;3.80;99.90;;;;;;5056800;28;20025;-68
2021/11/08 02:56:32;;;;;;;13.25;4.93;;;4.10;99.90;;;;;;5056571;28;20035;-68
2021/11/08 02:58:58;;;;;;;12.13;4.45;;;;;;;;;;5056798;28;20013;-68
2021/11/08 03:01:28;;;;;;;10.80;4.03;;;4.30;99.90;;;;;;5056854;28;20378;-68
2021/11/08 03:03:58;;;;;;;6.78;3.72;;;4.00;99.90;;;;;;5056938;28;20576;-68
2021/11/08 03:06:31;;;;;;;11.02;3.97;;;4.00;99.90;;;;;;5056148;28;20029;-69
2021/11/08 03:09:11;;;;;;;10.02;3.97;;;4.30;99.90;;;;;;5067451;28;20031;-68
2021/11/08 03:11:37;;;;;;;8.55;4.07;;;4.80;99.90;;;;;;5076481;28;20033;-68
2021/11/08 03:14:07;;;;;;;;;;;4.60;99.90;;;;;;5076818;28;20043;-68
2021/11/08 03:19:18;;;;;;;4.88;3.97;;;4.40;99.90;;;;;;5056329;28;20052;-68
2021/11/08 03:21:46;;;;;;;5.50;3.33;;;3.30;99.90;;;;;;5056317;28;20036;-68
2021/11/08 03:24:16;;;;;;;9.27;4.35;;;;;;;;;;5056178;28;20040;-68
2021/11/08 03:26:47;;;;;;;3.47;3.17;;;4.90;99.90;;;;;;5056424;28;20078;-68
2021/11/08 03:29:14;;;;;;;8.95;4.28;;;4.60;99.90;;;;;;5054979;28;20079;-68
2021/11/08 03:31:42;;;;;;;9.00;4.47;;;4.50;99.90;;;;;;5056375;28;20104;-68
2021/11/08 03:34:09;;;;;;;7.50;4.00;;;3.10;99.90;;;;;;5054865;28;20029;-68
2021/11/08 03:36:36;;;;;;;14.57;6.15;;;3.80;99.90;;;;;;5055952;28;20492;-68
2021/11/08 03:39:04;;;;;;;5.18;3.25;;;4.50;99.90;;;;;;5056126;28;20025;-68
2021/11/08 03:41:31;;;;;;;8.15;3.88;;;4.00;99.90;;;;;;5056367;28;20024;-68
2021/11/08 03:43:58;;;;;;;6.45;4.15;;;4.70;99.90;;;;;;5056075;28;20028;-68
2021/11/08 03:46:23;;;;;;;6.72;3.47;;;5.20;99.90;;;;;;5056302;28;20029;-68
2021/11/08 03:48:49;;;;;;;;;;;4.50;99.90;;;;;;5056602;28;20025;-68
2021/11/08 03:51:15;;;;;;;9.43;3.90;;;5.00;99.90;;;;;;5055942;28;19911;-68
2021/11/08 03:53:41;;;;;;;;;;;4.70;99.90;;;;;;5056323;28;20071;-68
2021/11/08 03:56:07;;;;;;;13.82;4.18;;;4.70;99.90;;;;;;5054667;28;19955;-68
2021/11/08 03:58:34;;;;;;;8.55;3.95;;;5.10;99.90;;;;;;5055964;28;20027;-68
2021/11/08 04:01:01;;;;;;;5.57;3.88;;;5.30;99.90;;;;;;5056062;28;20079;-68
2021/11/08 04:03:27;;;;;;;5.25;3.42;;;5.20;99.90;;;;;;5056429;28;20039;-68
2021/11/08 04:05:53;;;;;;;4.43;3.80;;;4.20;99.90;;;;;;5059745;28;20017;-68
2021/11/08 04:08:21;;;;;;;;;;;5.00;99.90;;;;;;5065907;28;20016;-68
2021/11/08 04:10:52;;;;;;;10.32;4.07;;;5.40;99.90;;;;;;5079804;28;19904;-68
2021/11/08 04:13:21;;;;;;;7.65;3.97;;;5.30;99.90;;;;;;5079814;28;20074;-68
2021/11/08 04:15:48;;;;;;;3.00;2.80;;;5.50;99.90;;;;;;5085785;28;20492;-68
2021/11/08 04:18:19;;;;;;;8.57;3.50;;;4.60;99.90;;;;;;5059804;28;20104;-68
2021/11/08 04:20:48;;;;;;;4.40;3.28;;;5.10;99.90;;;;;;5059329;28;20033;-68
2021/11/08 04:23:17;;;;;;;5.03;3.72;;;5.10;99.90;;;;;;5059493;28;20087;-68
2021/11/08 04:25:42;;;;;;;8.02;3.30;;;5.60;99.90;;;;;;5059407;28;20388;-68
2021/11/08 04:28:09;;;;;;;;;;;5.40;99.90;;;;;;5058562;28;20064;-68
2021/11/08 04:30:41;;;;;;;3.55;2.92;;;5.20;99.90;;;;;;5059347;28;20425;-68
2021/11/08 04:33:17;;;;;;;4.53;3.00;;;6.10;99.90;;;;;;5059532;28;20067;-68
2021/11/08 04:41:05;;;;;;;8.38;3.83;;;5.70;99.90;;;;;;5059229;28;20021;-68
2021/11/08 04:51:10;;;;;;;6.57;3.50;;;5.80;99.90;;;;;;5059085;28;20029;-68
2021/11/08 04:53:57;;;;;;;3.88;3.55;;;6.10;99.90;;;;;;5057449;28;20032;-68
2021/11/08 05:31:24;;;;;;;9.25;3.45;;;4.80;99.90;;;;;;5016444;28;20029;-68
2021/11/08 05:33:50;;;;;;;;;;;4.80;99.90;;;;;;5050148;28;20037;-68
2021/11/08 05:36:16;;;;;;;4.72;2.92;;;5.30;99.90;;;;;;5057863;28;19928;-68
2021/11/08 05:38:43;;;;;;;6.97;3.40;;;5.20;99.90;;;;;;5058003;28;20396;-68
2021/11/08 05:41:09;;;;;;;5.10;3.28;;;4.40;99.90;;;;;;5058112;28;20039;-68
2021/11/08 05:43:35;;;;;;;;;;;3.90;99.90;;;;;;5058445;28;20481;-68
2021/11/08 05:46:01;;;;;;;5.32;3.30;;;;;;;;;;5058095;28;19913;-68
2021/11/08 05:48:27;;;;;;;4.85;3.15;;;4.80;99.90;;;;;;5057862;28;20055;-68
2021/11/08 05:50:52;;;;;;;;;;;4.50;99.90;;;;;;5058252;28;20556;-68
2021/11/08 05:53:18;;;;;;;9.45;4.68;;;4.40;99.90;;;;;;5057699;28;20284;-68
2021/11/08 05:56:04;;;;;;;;;;;4.10;99.90;;;;;;5058173;28;20025;-68
2021/11/08 06:50:22;;;;;;;9.95;4.43;;;4.20;99.90;;;;;;5076743;28;20185;-67
2021/11/08 06:52:50;;;;;;;5.45;3.40;;;4.90;99.90;;;;;;5077005;28;20013;-68
2021/11/08 06:55:19;;;;;;;5.97;3.28;;;4.80;99.90;;;;;;5076718;28;20029;-67
2021/11/08 06:57:57;;;;;;;10.65;4.20;;;5.00;99.90;;;;;;5076840;28;20024;-68
2021/11/08 07:00:26;;;;;;;6.55;3.70;;;5.20;99.90;;;;;;5077077;28;20017;-68
2021/11/08 07:02:52;;;;;;;5.03;3.58;;;6.60;99.90;;;;;;5076870;28;20100;-68
2021/11/08 07:05:19;;;;;;;9.40;3.17;;;5.40;99.90;;;;;;5076498;28;20074;-68
2021/11/08 07:07:45;;;;;;;11.02;5.03;;;6.40;99.90;;;;;;5076495;28;20028;-68
2021/11/08 07:10:10;;;;;;;;;;;5.20;99.90;;;;;;5077127;28;20036;-67
2021/11/08 07:12:36;;;;;;;8.95;3.55;;;5.40;99.90;;;;;;5076602;28;19912;-68
2021/11/08 07:15:05;;;;;;;;;;;5.60;99.90;;;;;;5077539;28;20052;-68
2021/11/08 07:17:32;;;;;;;6.20;3.92;;;6.10;99.90;;;;;;5068009;28;19927;-68
2021/11/08 07:20:00;;;;;;;3.70;3.40;;;6.70;99.90;;;;;;5056337;28;20025;-68
2021/11/08 07:22:27;;;;;;;6.28;4.20;;;6.00;99.90;;;;;;5056332;28;20488;-68
2021/11/08 07:24:53;;;;;;;10.05;5.68;;;5.30;99.90;;;;;;5056606;28;20047;-68
2021/11/08 07:27:20;;;;;;;7.82;4.85;;;5.90;99.90;;;;;;5056473;28;20032;-68
2021/11/08 07:29:45;;;;;;;5.88;4.20;;;5.70;99.90;;;;;;5056478;28;20070;-68
2021/11/08 07:32:11;;;;;;;;;;;5.80;99.90;;;;;;5056680;28;20029;-68
2021/11/08 07:34:37;;;;;;;13.38;7.30;;;5.70;99.90;;;;;;5056111;28;19909;-68
2021/11/08 07:37:03;;;;;;;;;;;6.00;99.90;;;;;;5056441;28;20374;-68
2021/11/08 07:39:29;;;;;;;9.17;4.37;;;5.90;99.90;;;;;;5060591;28;19927;-68
2021/11/08 07:41:55;;;;;;;;;;;6.10;99.90;;;;;;5060637;28;20759;-68
2021/11/08 07:44:21;;;;;;;15.90;9.65;;;6.00;99.90;;;;;;5060623;28;20357;-68
2021/11/08 07:46:47;;;;;;;;;;;5.80;99.90;;;;;;5060534;28;20074;-68
2021/11/08 07:49:12;;;;;;;15.60;10.27;;;6.80;99.90;;;;;;5060385;28;20301;-68
2021/11/08 07:51:38;;;;;;;;;;;6.60;99.90;;;;;;5060128;28;20025;-68
2021/11/08 07:54:04;;;;;;;13.48;8.45;;;7.80;99.90;;;;;;5060310;28;19944;-68
2021/11/08 07:56:30;;;;;;;;;;;6.90;99.90;;;;;;5060213;28;20021;-68
2021/11/08 07:58:56;;;;;;;10.82;8.02;;;6.60;99.90;;;;;;5058800;28;19936;-68
2021/11/08 08:01:22;;;;;;;;;;;6.60;99.90;;;;;;5060454;28;20070;-68
2021/11/08 08:03:48;;;;;;;10.10;8.73;;;6.90;99.90;;;;;;5060128;28;19905;-68
2021/11/08 08:06:15;;;;;;;18.10;8.65;;;6.90;99.90;;;;;;5059426;28;20098;-68
2021/11/08 08:08:45;;;;;;;7.30;6.40;;;7.20;99.90;;;;;;5068431;28;20116;-68
2021/11/08 08:11:11;;;;;;;14.30;8.57;;;7.70;99.90;;;;;;5079668;28;20029;-68
2021/11/08 08:13:37;;;;;;;;;;;8.20;99.90;;;;;;5080385;28;20065;-68
2021/11/08 08:16:06;;;;;;;13.23;7.97;;;7.90;99.90;;;;;;5083303;28;19916;-68
2021/11/08 08:18:37;;;;;;;18.02;10.02;;;8.30;99.90;;;;;;5059865;28;20028;-68
2021/11/08 08:21:03;;;;;;;19.48;13.48;;;8.00;99.90;;;;;;5059255;28;20023;-68
2021/11/08 08:23:29;;;;;;;16.00;12.13;;;8.30;99.90;;;;;;5059560;28;20025;-68
2021/11/08 08:25:55;;;;;;;;;;;8.50;99.90;;;;;;5059811;28;20029;-68
2021/11/08 08:28:21;;;;;;;20.42;12.68;;;8.30;99.90;;;;;;5059809;28;19905;-68
2021/11/08 08:30:48;;;;;;;24.08;15.02;;;8.50;99.90;;;;;;5059303;28;20087;-68
2021/11/08 08:33:14;;;;;;;20.42;11.02;;;8.80;99.90;;;;;;5059524;28;20061;-68
2021/11/08 08:35:40;;;;;;;14.18;9.93;;;8.70;99.90;;;;;;5058924;28;20029;-68
2021/11/08 08:38:12;;;;;;;19.60;12.00;;;9.40;99.90;;;;;;5059400;28;20493;-68
2021/11/08 08:40:40;;;;;;;16.27;11.73;;;9.50;99.90;;;;;;5059163;28;20028;-68
2021/11/08 08:43:07;;;;;;;15.80;9.98;;;9.60;99.90;;;;;;5059328;28;20528;-68
2021/11/08 08:45:36;;;;;;;14.23;9.07;;;9.90;99.90;;;;;;5058996;28;20036;-68
2021/11/08 08:48:03;;;;;;;14.13;8.57;;;10.50;99.90;;;;;;5059036;28;20051;-68
2021/11/08 08:50:29;;;;;;;13.77;9.70;;;10.80;99.90;;;;;;5057868;28;20060;-68
2021/11/08 08:52:55;;;;;;;14.15;10.00;;;11.20;99.90;;;;;;5058956;28;20021;-68
2021/11/08 08:55:22;;;;;;;15.65;9.88;;;10.90;99.90;;;;;;5057572;28;20048;-68
2021/11/08 08:57:48;;;;;;;16.02;8.98;;;10.90;99.90;;;;;;5058954;28;20085;-69
2021/11/08 09:00:17;;;;;;;15.18;5.88;;;11.60;99.90;;;;;;5058745;28;20036;-68
2021/11/08 09:02:43;;;;;;;15.73;4.00;;;12.50;99.90;;;;;;5058854;28;20017;-68
2021/11/08 09:05:10;;;;;;;7.68;4.13;;;13.00;99.90;;;;;;5058341;28;20068;-68
2021/11/08 09:07:39;;;;;;;10.13;3.50;;;13.00;99.90;;;;;;5057435;28;20048;-69
2021/11/08 09:10:06;;;;;;;12.38;2.95;;;12.10;99.90;;;;;;5065574;28;20025;-68
2021/11/08 09:12:32;;;;;;;12.07;2.85;;;12.70;99.90;;;;;;5078613;28;20027;-68
2021/11/08 09:14:58;;;;;;;16.70;3.85;;;13.30;99.90;;;;;;5078440;28;20048;-68
2021/11/08 09:17:25;;;;;;;11.65;3.03;;;13.90;99.90;;;;;;5071675;28;20033;-68
2021/11/08 09:19:51;;;;;;;7.32;2.30;;;13.90;99.90;;;;;;5058650;28;20025;-68
2021/11/08 09:22:17;;;;;;;10.73;3.40;;;13.50;99.90;;;;;;5058263;28;20047;-69
2021/11/08 09:24:43;;;;;;;16.83;4.47;;;13.40;99.90;;;;;;5058490;28;20028;-68
2021/11/08 09:27:09;;;;;;;18.50;4.13;;;12.60;99.90;;;;;;5058269;28;20025;-69
2021/11/08 09:29:36;;;;;;;17.80;4.07;;;13.10;99.90;;;;;;5058526;28;20024;-69
2021/11/08 09:32:03;;;;;;;12.57;4.28;;;12.60;99.90;;;;;;5058190;28;20039;-69
2021/11/08 09:34:29;;;;;;;14.13;3.42;;;12.30;99.90;;;;;;5058022;28;20179;-68
2021/11/08 09:36:59;;;;;;;8.63;3.45;;;12.40;99.90;;;;;;5058013;28;20032;-69
2021/11/08 09:39:28;;;;;;;12.48;3.20;;;12.60;99.90;;;;;;5058306;28;20017;-69
2021/11/08 09:42:00;;;;;;;9.20;3.08;;;12.60;99.90;;;;;;5058091;28;20027;-68
2021/11/08 09:44:26;;;;;;;6.18;2.65;;;13.30;99.90;;;;;;5058111;28;20485;-68
2021/11/08 09:46:55;;;;;;;8.38;2.90;;;13.40;99.90;;;;;;5058167;28;20481;-69
2021/11/08 09:49:21;;;;;;;9.90;3.08;;;13.60;99.90;;;;;;5057936;28;20101;-68
2021/11/08 09:51:49;;;;;;;12.82;3.03;;;13.80;99.90;;;;;;5057684;28;20053;-69
2021/11/08 09:54:17;;;;;;;12.45;2.88;;;14.50;99.90;;;;;;5056637;28;20115;-69
2021/11/08 09:56:48;;;;;;;10.18;3.47;;;15.00;99.90;;;;;;5057639;28;20033;-69
2021/11/08 09:59:15;;;;;;;12.27;3.38;;;14.70;99.90;;;;;;5057823;28;20100;-69
2021/11/08 10:01:42;;;;;;;12.35;3.08;;;14.80;99.90;;;;;;5057605;28;20059;-69
2021/11/08 10:04:12;;;;;;;8.38;3.35;;;14.70;99.90;;;;;;5057459;28;20025;-69
2021/11/08 10:06:40;;;;;;;11.00;3.63;;;15.10;99.90;;;;;;5057242;28;20108;-69
2021/11/08 10:09:08;;;;;;;9.88;3.92;;;15.20;99.90;;;;;;5069574;28;20029;-69
2021/11/08 10:11:37;;;;;;;12.93;3.22;;;15.50;99.90;;;;;;5077574;28;20107;-69
2021/11/08 10:14:05;;;;;;;7.53;2.75;;;15.60;99.90;;;;;;5077314;28;20074;-70
2021/11/08 10:16:34;;;;;;;13.43;3.38;;;16.10;99.90;;;;;;5077724;28;20033;-69
2021/11/08 10:19:03;;;;;;;11.13;2.85;;;16.20;99.90;;;;;;5057384;28;20025;-69
2021/11/08 10:21:35;;;;;;;7.18;2.30;;;16.30;99.90;;;;;;5064057;28;20472;-70
2021/11/08 10:24:08;;;;;;;16.33;3.72;;;16.60;99.90;;;;;;5077218;28;20472;-69
2021/11/08 10:26:37;;;;;;;7.38;2.60;;;16.60;99.90;;;;;;5077325;28;20031;-70
2021/11/08 10:29:10;;;;;;;10.05;2.88;;;16.70;99.90;;;;;;5077052;28;20028;-70
2021/11/08 10:31:41;;;;;;;11.30;3.72;;;17.10;99.90;;;;;;5077106;28;20150;-70
2021/11/08 10:34:11;;;;;;;7.68;3.10;;;17.20;99.90;;;;;;5076939;28;20028;-70
2021/11/08 10:36:37;;;;;;;9.23;3.10;;;17.30;99.90;;;;;;5076974;28;20032;-70
2021/11/08 10:39:06;;;;;;;7.78;2.30;;;17.40;99.90;;;;;;5076891;28;20100;-70
2021/11/08 10:41:50;;;;;;;10.73;3.45;;;17.50;99.90;;;;;;5077116;28;20032;-70
2021/11/08 10:44:22;;;;;;;8.40;2.67;;;17.40;99.90;;;;;;5077111;28;20027;-70
2021/11/08 10:47:00;;;;;;;13.15;3.13;;;17.50;99.90;;;;;;5077077;28;20082;-70
2021/11/08 10:49:29;;;;;;;7.88;2.60;;;17.70;99.90;;;;;;5076876;28;20021;-70
2021/11/08 10:51:58;;;;;;;7.88;2.25;;;18.00;99.90;;;;;;5076590;28;20024;-68
2021/11/08 10:54:33;;;;;;;9.30;3.60;;;18.20;99.90;;;;;;5076817;28;20077;-68
2021/11/08 10:57:20;;;;;;;6.80;2.50;;;18.60;99.90;;;;;;5075321;28;20035;-68
2021/11/08 10:59:50;;;;;;;7.30;2.05;;;18.80;99.90;;;;;;5076650;28;20271;-69
2021/11/08 11:02:22;;;;;;;7.15;2.30;;;19.20;99.90;;;;;;5076766;28;20085;-69
2021/11/08 11:04:58;;;;;;;7.55;1.95;;;19.50;99.90;;;;;;5075109;28;20082;-68
2021/11/08 11:07:27;;;;;;;6.15;2.75;;;19.70;99.90;;;;;;5076472;28;20078;-69
2021/11/08 11:10:19;;;;;;;9.65;2.55;;;20.10;99.90;;;;;;5075423;28;20062;-69
2021/11/08 11:12:49;;;;;;;13.00;3.03;;;20.20;99.90;;;;;;5076128;28;20017;-69
2021/11/08 11:15:20;;;;;;;13.25;3.40;;;19.70;99.90;;;;;;5078831;28;20416;-69
2021/11/08 11:17:51;;;;;;;11.80;3.38;;;19.50;99.90;;;;;;5063501;28;20017;-69
2021/11/08 11:20:31;;;;;;;5.40;2.40;;;19.10;99.90;;;;;;5056200;28;20064;-69
2021/11/08 11:23:20;;;;;;;10.85;3.35;;;19.00;99.90;;;;;;5055146;28;20556;-69
2021/11/08 11:25:53;;;;;;;7.22;5.20;;;18.90;99.90;;;;;;5056248;28;20028;-69
2021/11/08 11:28:31;;;;;;;7.20;2.40;;;19.40;99.90;;;;;;5055292;28;20401;-69
2021/11/08 11:30:57;;;;;;;10.95;2.22;;;20.20;99.90;;;;;;5056296;28;20527;-69
2021/11/08 11:33:27;;;;;;;8.27;2.47;;;20.50;99.90;;;;;;5055311;28;20025;-70
2021/11/08 11:36:09;;;;;;;11.10;3.08;;;20.30;99.90;;;;;;5054647;28;20037;-70
2021/11/08 11:38:41;;;;;;;11.40;1.88;;;20.60;99.90;;;;;;5056176;28;20024;-69
2021/11/08 11:41:12;;;;;;;8.52;2.05;;;20.50;99.90;;;;;;5056401;28;20018;-70
2021/11/08 11:43:45;;;;;;;8.30;2.42;;;21.00;99.90;;;;;;5056186;28;20017;-70
2021/11/08 11:46:21;;;;;;;7.93;1.75;;;;;;;;;;5056236;28;20025;-70
2021/11/08 11:48:48;;;;;;;6.72;2.60;;;21.40;99.90;;;;;;5056354;28;20021;-70
2021/11/08 11:51:20;;;;;;;12.80;2.67;;;21.70;98.10;;;;;;5054684;28;20504;-70
2021/11/08 11:53:47;;;;;;;9.45;3.17;;;22.00;99.40;;;;;;5054585;28;20033;-70
2021/11/08 11:56:15;;;;;;;12.63;3.70;;;21.70;99.60;;;;;;5054663;28;20921;-70
2021/11/08 11:58:42;;;;;;;6.43;2.08;;;21.70;99.90;;;;;;5054933;28;20055;-70
2021/11/08 12:01:11;;;;;;;4.10;1.52;;;21.20;96.80;;;;;;5054752;28;20033;-70
2021/11/08 12:03:37;;;;;;;10.13;2.22;;;;;;;;;;5054732;28;20048;-69
2021/11/08 12:06:05;;;;;;;7.05;1.98;;;19.80;96.70;;;;;;5055985;28;20025;-70
2021/11/08 12:08:38;;;;;;;6.00;2.33;;;19.00;97.80;;;;;;5063046;28;20508;-70
2021/11/08 12:11:06;;;;;;;12.27;2.33;;;18.90;99.70;;;;;;5075896;28;20377;-69
2021/11/08 12:13:36;;;;;;;10.02;2.45;;;19.10;99.70;;;;;;5076137;28;20028;-69
2021/11/08 12:16:14;;;;;;;11.60;2.45;;;19.40;98.70;;;;;;5079588;28;20044;-69
2021/11/08 12:18:41;;;;;;;5.05;1.67;;;19.60;97.80;;;;;;5056022;28;20029;-69
2021/11/08 12:21:35;;;;;;;7.35;2.38;;;19.70;98.40;;;;;;5055485;28;20059;-69
2021/11/08 12:24:13;;;;;;;9.70;2.10;;;20.20;98.60;;;;;;5055839;28;20017;-69
2021/11/08 12:26:40;;;;;;;13.38;3.17;;;20.50;98.00;;;;;;5059613;28;20025;-69
2021/11/08 12:29:13;;;;;;;5.32;1.65;;;20.40;97.30;;;;;;5059452;28;20021;-70
2021/11/08 12:31:39;;;;;;;9.02;2.15;;;20.80;98.60;;;;;;5059325;28;20029;-69
2021/11/08 12:34:21;;;;;;;7.05;1.70;;;21.30;96.40;;;;;;5059278;28;20029;-69
2021/11/08 12:36:58;;;;;;;9.25;2.30;;;;;;;;;;5059244;28;20099;-69
2021/11/08 12:39:25;;;;;;;10.77;2.47;;;21.90;96.80;;;;;;5059568;28;20021;-69
2021/11/08 12:41:53;;;;;;;9.55;2.95;;;21.60;98.20;;;;;;5059418;28;20493;-69
2021/11/08 12:44:31;;;;;;;8.82;1.98;;;20.80;95.10;;;;;;5059492;28;20049;-69
2021/11/08 12:46:58;;;;;;;4.63;2.42;;;20.70;96.60;;;;;;5059057;28;20031;-69
2021/11/08 12:49:51;;;;;;;9.52;2.03;;;20.50;98.60;;;;;;5058863;28;20033;-69
2021/11/08 12:52:21;;;;;;;8.60;2.03;;;19.90;99.40;;;;;;5059436;28;20377;-69
2021/11/08 12:54:57;;;;;;;8.48;2.25;;;19.30;97.50;;;;;;5058840;28;20029;-69
2021/11/08 12:57:25;;;;;;;4.80;2.00;;;18.50;97.70;;;;;;5059088;28;20033;-69
2021/11/08 12:59:55;;;;;;;8.70;2.17;;;18.00;98.20;;;;;;5059068;28;20412;-69
2021/11/08 13:02:42;;;;;;;12.88;2.80;;;17.70;98.80;;;;;;5059067;28;20538;-69
2021/11/08 13:05:12;;;;;;;10.77;3.22;;;17.30;99.40;;;;;;5058424;28;20021;-69
2021/11/08 13:07:40;;;;;;;10.73;2.80;;;16.90;99.90;;;;;;5057311;28;20087;-69
2021/11/08 13:10:34;;;;;;;6.32;2.00;;;16.60;99.90;;;;;;5065887;28;20016;-69
2021/11/08 13:13:00;;;;;;;7.72;3.05;;;16.20;99.90;;;;;;5078641;28;20024;-69
2021/11/08 13:15:29;;;;;;;5.53;1.98;;;16.10;99.90;;;;;;5082550;28;20066;-68
2021/11/08 13:17:58;;;;;;;5.15;2.38;;;16.20;99.90;;;;;;5061530;28;20036;-69
2021/11/08 13:20:45;;;;;;;9.93;2.47;;;16.40;99.90;;;;;;5058235;28;20039;-69
2021/11/08 13:23:22;;;;;;;11.80;2.22;;;16.60;99.90;;;;;;5058550;28;20053;-68
2021/11/08 13:25:54;;;;;;;8.00;1.98;;;16.70;99.90;;;;;;5058556;28;20052;-68
2021/11/08 13:28:23;;;;;;;6.82;2.15;;;17.00;99.90;;;;;;5058665;28;20029;-68
2021/11/08 13:30:53;;;;;;;12.57;2.42;;;17.50;99.90;;;;;;5057108;28;20029;-68
2021/11/08 13:33:32;;;;;;;10.05;2.58;;;18.40;99.90;;;;;;5058567;28;20040;-68
2021/11/08 13:35:59;;;;;;;6.82;2.45;;;19.10;99.70;;;;;;5057460;28;20044;-68
2021/11/08 13:38:34;;;;;;;13.00;3.30;;;19.20;99.50;;;;;;5058106;28;20474;-68
2021/11/08 13:41:07;;;;;;;13.02;3.03;;;18.80;98.90;;;;;;5066205;28;20484;-68
2021/11/08 13:43:51;;;;;;;8.52;1.90;;;18.30;99.90;;;;;;5078038;28;20021;-68
2021/11/08 13:46:27;;;;;;;5.72;1.63;;;18.10;99.90;;;;;;5078476;28;20025;-68
2021/11/08 13:48:56;;;;;;;10.82;2.30;;;18.00;99.90;;;;;;5077897;28;20024;-68
2021/11/08 13:51:27;;;;;;;7.95;2.08;;;17.80;99.90;;;;;;5078216;28;20448;-68
2021/11/08 13:54:05;;;;;;;7.25;2.55;;;17.80;99.90;;;;;;5077942;28;20038;-68
2021/11/08 13:56:41;;;;;;;7.40;2.13;;;17.80;99.90;;;;;;5077682;28;20039;-68
2021/11/08 13:59:14;;;;;;;13.48;3.63;;;17.80;99.90;;;;;;5077936;28;20032;-68
2021/11/08 14:01:43;;;;;;;10.40;3.15;;;17.70;99.90;;;;;;5077649;28;20396;-68
2021/11/08 14:04:09;;;;;;;11.13;2.72;;;17.60;99.90;;;;;;5077545;28;20121;-68
2021/11/08 14:06:42;;;;;;;13.57;2.72;;;17.20;99.90;;;;;;5076052;28;20086;-68
2021/11/08 14:09:18;;;;;;;20.73;3.60;;;16.70;99.90;;;;;;5077560;28;20025;-68
2021/11/08 14:11:46;;;;;;;12.82;3.63;;;16.60;99.90;;;;;;5077691;28;20111;-68
2021/11/08 14:14:12;;;;;;;13.63;3.83;;;16.40;99.90;;;;;;5077141;28;20560;-68
2021/11/08 14:16:41;;;;;;;6.05;2.67;;;16.50;99.90;;;;;;5077481;28;20389;-68
2021/11/08 14:19:08;;;;;;;10.45;3.10;;;16.70;99.90;;;;;;5057095;28;20493;-68
2021/11/08 14:21:36;;;;;;;10.32;2.70;;;16.90;99.90;;;;;;5057378;28;20020;-68
2021/11/08 14:24:10;;;;;;;8.75;2.35;;;17.00;99.90;;;;;;5057305;28;20017;-68
2021/11/08 14:26:39;;;;;;;13.32;2.80;;;16.90;99.90;;;;;;5057495;28;20032;-68
2021/11/08 14:29:11;;;;;;;8.52;2.42;;;16.70;99.90;;;;;;5057067;28;20389;-68
2021/11/08 14:31:37;;;;;;;11.35;2.42;;;16.30;99.90;;;;;;5057280;28;20106;-68
2021/11/08 14:34:08;;;;;;;13.95;2.55;;;15.90;99.90;;;;;;5056837;28;20025;-68
2021/11/08 14:36:44;;;;;;;8.07;1.95;;;15.60;99.90;;;;;;5056906;28;20040;-68
2021/11/08 14:39:13;;;;;;;7.63;2.33;;;15.30;99.90;;;;;;5057027;28;20021;-68
2021/11/08 14:42:01;;;;;;;7.80;2.10;;;15.20;99.90;;;;;;5057183;28;20029;-68
2021/11/08 14:44:38;;;;;;;9.80;2.90;;;15.10;99.90;;;;;;5065992;28;20560;-68
2021/11/08 14:47:16;;;;;;;9.25;3.00;;;14.90;99.90;;;;;;5076272;28;20534;-68
2021/11/08 14:49:54;;;;;;;15.38;3.78;;;14.90;99.90;;;;;;5076891;28;20032;-68
2021/11/08 14:52:27;;;;;;;10.80;3.05;;;14.90;99.90;;;;;;5077123;28;20078;-68
2021/11/08 14:54:53;;;;;;;12.43;3.55;;;14.90;99.90;;;;;;5076641;28;20025;-68
2021/11/08 14:57:19;;;;;;;12.20;4.13;;;15.10;99.90;;;;;;5077116;28;20031;-68
2021/11/08 14:59:53;;;;;;;15.07;2.90;;;15.30;99.90;;;;;;5076704;28;20522;-68